Stavros S. Niarchos — MZIU7 — position and weather

sailwx.info

Track history (hours):
 
Tides and Currents Weather Stations Pressure Air Temp Water Temp Dewpoint Dewpoint Depression Visibility Wind Speed Wind Dir Waves Ship Positions

Stavros S. Niarchos

See http://www.classic-sailing.co.uk/ for bookings.

Ship's website: http://www.tallships.org/

Last reported at 2017-Aug-22 22:22 UTC. Time now 2017-Aug-22 22:34 UTC.
Position N 51°54' W 008°28'.

Length 59.4 m; beam 9.9 m; draft 4.5 m.

Type: Sailing vessel. MMSI: 232007330.

Date/timePositionNaut miles runAvg speedWind from/ knotsBaromVisibWave heightAir tempDewpointWater temp
2017-Aug-22 22:22N 51°54' W 008°28'0 0.0
2017-Aug-22 21:58N 51°54' W 008°28'0 0.1
2017-Aug-22 21:28N 51°54' W 008°28'0 0.1
2017-Aug-22 20:58N 51°54' W 008°28'0 0.0
2017-Aug-22 20:28N 51°54' W 008°28'0 0.0
2017-Aug-22 18:46N 51°54' W 008°28'0 0.3
2017-Aug-22 18:28N 51°54' W 008°28'0 0.1
2017-Aug-22 17:53N 51°54' W 008°28'0 0.0
2017-Aug-22 17:29N 51°54' W 008°28'0 0.0
2017-Aug-22 15:29N 51°54' W 008°28'0 0.0
2017-Aug-22 12:03N 51°54' W 008°28'0 0.0
2017-Aug-22 11:54N 51°54' W 008°28'0 0.0
2017-Aug-22 11:27N 51°54' W 008°28'0 0.0
2017-Aug-22 10:57N 51°54' W 008°28'0 0.0
2017-Aug-22 10:27N 51°54' W 008°28'0 0.0
2017-Aug-22 10:00N 51°54' W 008°28'0 0.0
2017-Aug-22 09:30N 51°54' W 008°28'0 0.0
2017-Aug-22 08:54N 51°54' W 008°28'0 0.0
2017-Aug-22 08:27N 51°54' W 008°28'0 0.0
2017-Aug-22 08:00N 51°54' W 008°28'0 0.0
2017-Aug-22 06:27N 51°54' W 008°28'0 0.0
2017-Aug-22 05:57N 51°54' W 008°28'0 0.0
2017-Aug-22 05:30N 51°54' W 008°28'0 0.0
2017-Aug-22 04:57N 51°54' W 008°28'0 0.0
2017-Aug-22 03:21N 51°54' W 008°28'0 0.0
2017-Aug-21 22:49N 51°54' W 008°28'0 0.0
2017-Aug-21 22:19N 51°54' W 008°28'0 0.0
2017-Aug-21 21:55N 51°54' W 008°28'0 0.0
2017-Aug-21 21:28N 51°54' W 008°28'0 0.0
2017-Aug-21 20:58N 51°54' W 008°28'0 0.0
2017-Aug-21 20:25N 51°54' W 008°28'0 0.0
2017-Aug-21 19:58N 51°54' W 008°28'0 0.0
2017-Aug-21 18:07N 51°54' W 008°28'0 0.0
2017-Aug-21 17:55N 51°54' W 008°28'0 0.0
2017-Aug-21 17:25N 51°54' W 008°28'0 0.0
2017-Aug-21 16:55N 51°54' W 008°28'0 0.0
2017-Aug-21 16:29N 51°54' W 008°28'0 0.0
2017-Aug-21 14:44N 51°54' W 008°28'0 0.0
2017-Aug-21 14:30N 51°54' W 008°28'1 1.3
2017-Aug-21 14:00N 51°54' W 008°27'3 5.2
2017-Aug-21 13:30N 51°53' W 008°23'3 6.9
2017-Aug-21 13:00N 51°51' W 008°20'2 4.6
2017-Aug-21 12:30N 51°50' W 008°16'4 7.6
2017-Aug-21 12:01N 51°46' W 008°15'4 7.7
2017-Aug-21 11:31N 51°42' W 008°16'4 8.4
2017-Aug-21 11:00N 51°38' W 008°20'4 8.4
2017-Aug-21 10:30N 51°35' W 008°23'2 3.6
2017-Aug-21 10:00N 51°34' W 008°26'1 2.5
2017-Aug-21 09:30N 51°33' W 008°27'1 2.4
2017-Aug-21 09:00N 51°32' W 008°29'1 2.5
2017-Aug-21 08:28N 51°31' W 008°28'0 0.9
2017-Aug-21 08:00N 51°30' W 008°28'3 5.3
2017-Aug-21 07:30N 51°32' W 008°25'2 5.1
2017-Aug-21 07:00N 51°33' W 008°21'2 4.4
2017-Aug-21 06:30N 51°34' W 008°18'2 4.0
2017-Aug-21 06:00N 51°35' W 008°16'2 4.3
2017-Aug-21 05:30N 51°36' W 008°13'2 4.2
2017-Aug-21 05:00N 51°38' W 008°10'2 4.0
2017-Aug-21 04:30N 51°39' W 008°07'2 4.1
2017-Aug-21 04:00N 51°40' W 008°04'2 3.4
2017-Aug-21 03:30N 51°41' W 008°02'2 3.7
2017-Aug-21 03:00N 51°42' W 007°60'2 3.7
2017-Aug-21 02:30N 51°43' W 007°57'2 3.7
2017-Aug-21 02:00N 51°44' W 007°55'2 3.7
2017-Aug-21 01:30N 51°45' W 007°52'2 3.8
2017-Aug-21 01:00N 51°46' W 007°49'2 3.9
2017-Aug-21 00:30N 51°47' W 007°47'2 4.0
2017-Aug-21 00:00N 51°48' W 007°44'2 4.1
2017-Aug-20 23:30N 51°49' W 007°41'2 4.4
2017-Aug-20 23:00N 51°50' W 007°38'2 4.2
2017-Aug-20 22:30N 51°51' W 007°35'2 3.8
2017-Aug-20 21:55N 51°53' W 007°32'10 4.1
2017-Aug-20 19:29N 51°58' W 007°19'2 3.9
2017-Aug-20 18:59N 51°59' W 007°16'3 7.2
2017-Aug-20 18:30N 52°01' W 007°11'3 6.9
2017-Aug-20 18:00N 52°03' W 007°07'3 6.7
2017-Aug-20 17:31N 52°04' W 007°02'3 6.4
2017-Aug-20 17:00N 52°06' W 006°58'3 6.6
2017-Aug-20 16:30N 52°09' W 006°56'4 7.0
2017-Aug-20 16:00N 52°13' W 006°56'3 5.1
2017-Aug-20 15:30N 52°15' W 006°59'2 3.7
2017-Aug-20 15:00N 52°17' W 007°00'2 4.6
2017-Aug-20 14:30N 52°15' W 007°03'2 3.8
2017-Aug-20 14:00N 52°16' W 007°06'0 0.0
2017-Aug-19 16:26N 52°16' W 007°07'0 0.5
2017-Aug-19 16:00N 52°16' W 007°06'2 4.0
2017-Aug-19 15:30N 52°15' W 007°03'2 5.0
2017-Aug-19 15:01N 52°17' W 006°60'6 6.3
2017-Aug-19 14:00N 52°11' W 006°56'2 3.1
2017-Aug-19 13:25N 52°09' W 006°58'0 0.0
2017-Aug-19 12:37N 52°09' W 006°58'0 0.0
2017-Aug-19 12:19N 52°09' W 006°58'0 0.0
2017-Aug-19 11:55N 52°09' W 006°58'0 0.0
2017-Aug-19 11:25N 52°09' W 006°58'0 0.0
2017-Aug-19 10:58N 52°09' W 006°58'0 0.0
2017-Aug-19 10:28N 52°09' W 006°58'0 0.0
2017-Aug-19 09:55N 52°09' W 006°58'0 0.0
2017-Aug-19 09:25N 52°09' W 006°58'0 0.1
2017-Aug-19 08:55N 52°09' W 006°58'0 0.0
2017-Aug-19 08:25N 52°09' W 006°58'0 0.0
2017-Aug-19 07:55N 52°09' W 006°58'0 0.1
2017-Aug-19 07:22N 52°09' W 006°58'0 0.1
2017-Aug-19 06:52N 52°09' W 006°58'0 0.0
2017-Aug-19 06:19N 52°09' W 006°58'0 0.0
2017-Aug-19 05:58N 52°09' W 006°58'0 0.0
2017-Aug-19 05:25N 52°09' W 006°58'4 9.4
2017-Aug-19 05:00N 52°06' W 006°54'449.0 270 / 171017.3 5.4 13.010.3
2017-Aug-19 04:55N 52°09' W 006°58'0 0.0
2017-Aug-19 04:28N 52°09' W 006°58'0 0.0
2017-Aug-19 03:58N 52°09' W 006°58'0 0.0
2017-Aug-19 03:28N 52°09' W 006°58'0 0.0
2017-Aug-19 02:55N 52°09' W 006°58'0 0.0
2017-Aug-19 02:25N 52°09' W 006°58'0 0.0
2017-Aug-19 01:55N 52°09' W 006°58'0 0.0
2017-Aug-19 01:25N 52°09' W 006°58'0 0.0
2017-Aug-19 00:55N 52°09' W 006°58'0 0.0
2017-Aug-19 00:28N 52°09' W 006°58'0 0.0
2017-Aug-18 23:55N 52°09' W 006°58'0 0.0
2017-Aug-18 23:28N 52°09' W 006°58'0 0.0
2017-Aug-18 22:58N 52°09' W 006°58'0 0.0
2017-Aug-18 22:19N 52°09' W 006°58'0 0.1
2017-Aug-18 21:49N 52°09' W 006°58'0 0.0
2017-Aug-18 21:22N 52°09' W 006°58'0 0.1
2017-Aug-18 20:55N 52°09' W 006°58'0 0.1
2017-Aug-18 20:28N 52°09' W 006°58'0 0.0
2017-Aug-18 19:52N 52°09' W 006°58'0 0.0
2017-Aug-18 19:13N 52°09' W 006°58'0 0.0
2017-Aug-18 18:52N 52°09' W 006°58'0 0.0
2017-Aug-18 18:25N 52°09' W 006°58'0 0.0
2017-Aug-18 17:43N 52°09' W 006°58'0 0.0
2017-Aug-18 17:25N 52°09' W 006°58'0 0.0
2017-Aug-18 16:55N 52°09' W 006°58'0 0.3
2017-Aug-18 16:24N 52°09' W 006°59'1 2.1
2017-Aug-18 16:00N 52°08' W 006°58'4 7.2
2017-Aug-18 15:30N 52°05' W 006°56'2 4.9
2017-Aug-18 15:00N 52°03' W 006°57'4 4.3
2017-Aug-18 14:00N 52°04' W 007°04'1 2.7
2017-Aug-18 13:30N 52°05' W 007°05'1 2.8
2017-Aug-18 13:00N 52°06' W 007°07'1 2.0
2017-Aug-18 12:31N 52°06' W 007°08'1 2.7
2017-Aug-18 12:00N 52°05' W 007°08'2 3.3
2017-Aug-18 11:30N 52°04' W 007°07'2 3.3
2017-Aug-18 11:00N 52°02' W 007°06'2 3.4
2017-Aug-18 10:30N 52°00' W 007°05'2 3.8
2017-Aug-18 10:00N 51°59' W 007°05'1 2.4
2017-Aug-18 09:30N 51°57' W 007°04'1 2.2
2017-Aug-18 09:00N 51°57' W 007°02'2 4.8
2017-Aug-18 08:30N 51°58' W 006°59'2 4.9
2017-Aug-18 08:00N 51°59' W 006°55'2 4.6
2017-Aug-18 07:30N 52°00' W 006°52'3 4.5
2017-Aug-18 06:55N 52°02' W 006°48'2 4.7
2017-Aug-18 06:29N 52°03' W 006°45'1 2.9
2017-Aug-18 06:00N 52°03' W 006°43'2 3.2
2017-Aug-18 05:24N 52°02' W 006°40'1 2.6
2017-Aug-18 05:00N 52°02' W 006°38'1 2.3
2017-Aug-18 04:30N 52°02' W 006°37'1 2.3
2017-Aug-18 03:59N 52°02' W 006°35'1 2.3
2017-Aug-18 03:29N 52°01' W 006°33'1 2.9
2017-Aug-18 03:00N 52°01' W 006°30'2 3.1
2017-Aug-18 02:28N 52°01' W 006°28'2 3.3
2017-Aug-18 02:00N 52°01' W 006°25'1112.3
2017-Aug-18 02:00N 52°00' W 006°24'1 2.9 270 / 221009.010.8 15.011.3
2017-Aug-18 01:29N 52°01' W 006°23'1 1.9
2017-Aug-18 01:00N 52°01' W 006°21'1 1.6
2017-Aug-18 00:29N 52°01' W 006°20'1 2.3
2017-Aug-18 00:00N 52°01' W 006°18'1 2.3
2017-Aug-17 23:30N 52°01' W 006°17'1 2.5
2017-Aug-17 22:58N 52°01' W 006°14'2 3.4
2017-Aug-17 22:30N 52°01' W 006°12'2 3.6
2017-Aug-17 21:54N 52°00' W 006°08'31 2.6
2017-Aug-17 09:41N 51°45' W 005°24'1 7.7
2017-Aug-17 09:29N 51°43' W 005°24'4 7.3
2017-Aug-17 09:00N 51°40' W 005°21'4 7.5
2017-Aug-17 08:30N 51°37' W 005°17'4 7.1
2017-Aug-17 08:00N 51°34' W 005°14'4 7.0
2017-Aug-17 07:30N 51°34' W 005°08'3 6.0
2017-Aug-17 07:00N 51°34' W 005°03'2 4.6
2017-Aug-17 06:30N 51°32' W 005°06'3 5.3
2017-Aug-17 06:00N 51°31' W 005°10'3 5.1
2017-Aug-17 05:30N 51°30' W 005°13'1 3.0
2017-Aug-17 05:00N 51°29' W 005°12'2 3.3
2017-Aug-17 04:30N 51°28' W 005°10'2 3.1
2017-Aug-17 04:00N 51°27' W 005°07'1 2.8
2017-Aug-17 03:30N 51°28' W 005°05'1 2.0
2017-Aug-17 03:00N 51°29' W 005°04'1 2.1
2017-Aug-17 02:30N 51°29' W 005°03'2 3.0
2017-Aug-17 02:00N 51°29' W 005°00'1 3.0
2017-Aug-17 01:30N 51°30' W 004°58'1 2.9
2017-Aug-17 01:00N 51°31' W 004°56'1 2.7
2017-Aug-17 00:30N 51°32' W 004°54'1 2.6
2017-Aug-17 00:00N 51°32' W 004°52'1 2.4
2017-Aug-16 23:29N 51°33' W 004°51'1 1.7
2017-Aug-16 22:47N 51°34' W 004°49'1 1.7
2017-Aug-16 22:29N 51°34' W 004°48'1 1.6
2017-Aug-16 21:59N 51°34' W 004°47'1 1.7
2017-Aug-16 21:26N 51°35' W 004°46'1 1.4
2017-Aug-16 20:59N 51°35' W 004°45'1 1.8
2017-Aug-16 20:30N 51°36' W 004°44'1 1.5
2017-Aug-16 20:00N 51°36' W 004°43'2 3.7
2017-Aug-16 19:30N 51°37' W 004°41'2 3.8
2017-Aug-16 19:00N 51°39' W 004°40'0 0.7
2017-Aug-16 18:28N 51°39' W 004°40'0 0.2
2017-Aug-16 17:43N 51°39' W 004°40'0 0.4
2017-Aug-16 17:19N 51°39' W 004°40'0 0.2
2017-Aug-16 17:00N 51°39' W 004°40'4 8.5
2017-Aug-16 16:30N 51°34' W 004°41'1 2.8
2017-Aug-16 16:00N 51°33' W 004°41'  
2017-Aug-13 02:00N 51°30' W 003°54'0 0.0 1021.610.8 15.512.016.5
2017-Aug-12 23:00N 51°30' W 003°54'   340 / 81020.8 5.4 15.411.5
Track history (hours):
 
Tides and Currents Weather Stations Pressure Air Temp Water Temp Dewpoint Dewpoint Depression Visibility Wind Speed Wind Dir Waves Ship Positions

Stavros S. Niarchos

See http://www.classic-sailing.co.uk/ for bookings.

Ship's website: http://www.tallships.org/

Last reported at 2017-Aug-22 22:22 UTC. Time now 2017-Aug-22 22:34 UTC.
Position N 51°54' W 008°28'.

Length 59.4 m; beam 9.9 m; draft 4.5 m.

Type: Sailing vessel. MMSI: 232007330.

Date/timePositionNaut miles runAvg speedWind from/ knotsBaromVisibWave heightAir tempDewpointWater temp
2017-Aug-22 22:22N 51°54' W 008°28'0 0.0
2017-Aug-22 21:58N 51°54' W 008°28'0 0.1
2017-Aug-22 21:28N 51°54' W 008°28'0 0.1
2017-Aug-22 20:58N 51°54' W 008°28'0 0.0
2017-Aug-22 20:28N 51°54' W 008°28'0 0.0
2017-Aug-22 18:46N 51°54' W 008°28'0 0.3
2017-Aug-22 18:28N 51°54' W 008°28'0 0.1
2017-Aug-22 17:53N 51°54' W 008°28'0 0.0
2017-Aug-22 17:29N 51°54' W 008°28'0 0.0
2017-Aug-22 15:29N 51°54' W 008°28'0 0.0
2017-Aug-22 12:03N 51°54' W 008°28'0 0.0
2017-Aug-22 11:54N 51°54' W 008°28'0 0.0
2017-Aug-22 11:27N 51°54' W 008°28'0 0.0
2017-Aug-22 10:57N 51°54' W 008°28'0 0.0
2017-Aug-22 10:27N 51°54' W 008°28'0 0.0
2017-Aug-22 10:00N 51°54' W 008°28'0 0.0
2017-Aug-22 09:30N 51°54' W 008°28'0 0.0
2017-Aug-22 08:54N 51°54' W 008°28'0 0.0
2017-Aug-22 08:27N 51°54' W 008°28'0 0.0
2017-Aug-22 08:00N 51°54' W 008°28'0 0.0
2017-Aug-22 06:27N 51°54' W 008°28'0 0.0
2017-Aug-22 05:57N 51°54' W 008°28'0 0.0
2017-Aug-22 05:30N 51°54' W 008°28'0 0.0
2017-Aug-22 04:57N 51°54' W 008°28'0 0.0
2017-Aug-22 03:21N 51°54' W 008°28'0 0.0
2017-Aug-21 22:49N 51°54' W 008°28'0 0.0
2017-Aug-21 22:19N 51°54' W 008°28'0 0.0
2017-Aug-21 21:55N 51°54' W 008°28'0 0.0
2017-Aug-21 21:28N 51°54' W 008°28'0 0.0
2017-Aug-21 20:58N 51°54' W 008°28'0 0.0
2017-Aug-21 20:25N 51°54' W 008°28'0 0.0
2017-Aug-21 19:58N 51°54' W 008°28'0 0.0
2017-Aug-21 18:07N 51°54' W 008°28'0 0.0
2017-Aug-21 17:55N 51°54' W 008°28'0 0.0
2017-Aug-21 17:25N 51°54' W 008°28'0 0.0
2017-Aug-21 16:55N 51°54' W 008°28'0 0.0
2017-Aug-21 16:29N 51°54' W 008°28'0 0.0
2017-Aug-21 14:44N 51°54' W 008°28'0 0.0
2017-Aug-21 14:30N 51°54' W 008°28'1 1.3
2017-Aug-21 14:00N 51°54' W 008°27'3 5.2
2017-Aug-21 13:30N 51°53' W 008°23'3 6.9
2017-Aug-21 13:00N 51°51' W 008°20'2 4.6
2017-Aug-21 12:30N 51°50' W 008°16'4 7.6
2017-Aug-21 12:01N 51°46' W 008°15'4 7.7
2017-Aug-21 11:31N 51°42' W 008°16'4 8.4
2017-Aug-21 11:00N 51°38' W 008°20'4 8.4
2017-Aug-21 10:30N 51°35' W 008°23'2 3.6
2017-Aug-21 10:00N 51°34' W 008°26'1 2.5
2017-Aug-21 09:30N 51°33' W 008°27'1 2.4
2017-Aug-21 09:00N 51°32' W 008°29'1 2.5
2017-Aug-21 08:28N 51°31' W 008°28'0 0.9
2017-Aug-21 08:00N 51°30' W 008°28'3 5.3
2017-Aug-21 07:30N 51°32' W 008°25'2 5.1
2017-Aug-21 07:00N 51°33' W 008°21'2 4.4
2017-Aug-21 06:30N 51°34' W 008°18'2 4.0
2017-Aug-21 06:00N 51°35' W 008°16'2 4.3
2017-Aug-21 05:30N 51°36' W 008°13'2 4.2
2017-Aug-21 05:00N 51°38' W 008°10'2 4.0
2017-Aug-21 04:30N 51°39' W 008°07'2 4.1
2017-Aug-21 04:00N 51°40' W 008°04'2 3.4
2017-Aug-21 03:30N 51°41' W 008°02'2 3.7
2017-Aug-21 03:00N 51°42' W 007°60'2 3.7
2017-Aug-21 02:30N 51°43' W 007°57'2 3.7
2017-Aug-21 02:00N 51°44' W 007°55'2 3.7
2017-Aug-21 01:30N 51°45' W 007°52'2 3.8
2017-Aug-21 01:00N 51°46' W 007°49'2 3.9
2017-Aug-21 00:30N 51°47' W 007°47'2 4.0
2017-Aug-21 00:00N 51°48' W 007°44'2 4.1
2017-Aug-20 23:30N 51°49' W 007°41'2 4.4
2017-Aug-20 23:00N 51°50' W 007°38'2 4.2
2017-Aug-20 22:30N 51°51' W 007°35'2 3.8
2017-Aug-20 21:55N 51°53' W 007°32'10 4.1
2017-Aug-20 19:29N 51°58' W 007°19'2 3.9
2017-Aug-20 18:59N 51°59' W 007°16'3 7.2
2017-Aug-20 18:30N 52°01' W 007°11'3 6.9
2017-Aug-20 18:00N 52°03' W 007°07'3 6.7
2017-Aug-20 17:31N 52°04' W 007°02'3 6.4
2017-Aug-20 17:00N 52°06' W 006°58'3 6.6
2017-Aug-20 16:30N 52°09' W 006°56'4 7.0
2017-Aug-20 16:00N 52°13' W 006°56'3 5.1
2017-Aug-20 15:30N 52°15' W 006°59'2 3.7
2017-Aug-20 15:00N 52°17' W 007°00'2 4.6
2017-Aug-20 14:30N 52°15' W 007°03'2 3.8
2017-Aug-20 14:00N 52°16' W 007°06'0 0.0
2017-Aug-19 16:26N 52°16' W 007°07'0 0.5
2017-Aug-19 16:00N 52°16' W 007°06'2 4.0
2017-Aug-19 15:30N 52°15' W 007°03'2 5.0
2017-Aug-19 15:01N 52°17' W 006°60'6 6.3
2017-Aug-19 14:00N 52°11' W 006°56'2 3.1
2017-Aug-19 13:25N 52°09' W 006°58'0 0.0
2017-Aug-19 12:37N 52°09' W 006°58'0 0.0
2017-Aug-19 12:19N 52°09' W 006°58'0 0.0
2017-Aug-19 11:55N 52°09' W 006°58'0 0.0
2017-Aug-19 11:25N 52°09' W 006°58'0 0.0
2017-Aug-19 10:58N 52°09' W 006°58'0 0.0
2017-Aug-19 10:28N 52°09' W 006°58'0 0.0
2017-Aug-19 09:55N 52°09' W 006°58'0 0.0
2017-Aug-19 09:25N 52°09' W 006°58'0 0.1
2017-Aug-19 08:55N 52°09' W 006°58'0 0.0
2017-Aug-19 08:25N 52°09' W 006°58'0 0.0
2017-Aug-19 07:55N 52°09' W 006°58'0 0.1
2017-Aug-19 07:22N 52°09' W 006°58'0 0.1
2017-Aug-19 06:52N 52°09' W 006°58'0 0.0
2017-Aug-19 06:19N 52°09' W 006°58'0 0.0
2017-Aug-19 05:58N 52°09' W 006°58'0 0.0
2017-Aug-19 05:25N 52°09' W 006°58'4 9.4
2017-Aug-19 05:00N 52°06' W 006°54'449.0 270 / 171017.3 5.4 13.010.3
2017-Aug-19 04:55N 52°09' W 006°58'0 0.0
2017-Aug-19 04:28N 52°09' W 006°58'0 0.0
2017-Aug-19 03:58N 52°09' W 006°58'0 0.0
2017-Aug-19 03:28N 52°09' W 006°58'0 0.0
2017-Aug-19 02:55N 52°09' W 006°58'0 0.0
2017-Aug-19 02:25N 52°09' W 006°58'0 0.0
2017-Aug-19 01:55N 52°09' W 006°58'0 0.0
2017-Aug-19 01:25N 52°09' W 006°58'0 0.0
2017-Aug-19 00:55N 52°09' W 006°58'0 0.0
2017-Aug-19 00:28N 52°09' W 006°58'0 0.0
2017-Aug-18 23:55N 52°09' W 006°58'0 0.0
2017-Aug-18 23:28N 52°09' W 006°58'0 0.0
2017-Aug-18 22:58N 52°09' W 006°58'0 0.0
2017-Aug-18 22:19N 52°09' W 006°58'0 0.1
2017-Aug-18 21:49N 52°09' W 006°58'0 0.0
2017-Aug-18 21:22N 52°09' W 006°58'0 0.1
2017-Aug-18 20:55N 52°09' W 006°58'0 0.1
2017-Aug-18 20:28N 52°09' W 006°58'0 0.0
2017-Aug-18 19:52N 52°09' W 006°58'0 0.0
2017-Aug-18 19:13N 52°09' W 006°58'0 0.0
2017-Aug-18 18:52N 52°09' W 006°58'0 0.0
2017-Aug-18 18:25N 52°09' W 006°58'0 0.0
2017-Aug-18 17:43N 52°09' W 006°58'0 0.0
2017-Aug-18 17:25N 52°09' W 006°58'0 0.0
2017-Aug-18 16:55N 52°09' W 006°58'0 0.3
2017-Aug-18 16:24N 52°09' W 006°59'1 2.1
2017-Aug-18 16:00N 52°08' W 006°58'4 7.2
2017-Aug-18 15:30N 52°05' W 006°56'2 4.9
2017-Aug-18 15:00N 52°03' W 006°57'4 4.3
2017-Aug-18 14:00N 52°04' W 007°04'1 2.7
2017-Aug-18 13:30N 52°05' W 007°05'1 2.8
2017-Aug-18 13:00N 52°06' W 007°07'1 2.0
2017-Aug-18 12:31N 52°06' W 007°08'1 2.7
2017-Aug-18 12:00N 52°05' W 007°08'2 3.3
2017-Aug-18 11:30N 52°04' W 007°07'2 3.3
2017-Aug-18 11:00N 52°02' W 007°06'2 3.4
2017-Aug-18 10:30N 52°00' W 007°05'2 3.8
2017-Aug-18 10:00N 51°59' W 007°05'1 2.4
2017-Aug-18 09:30N 51°57' W 007°04'1 2.2
2017-Aug-18 09:00N 51°57' W 007°02'2 4.8
2017-Aug-18 08:30N 51°58' W 006°59'2 4.9
2017-Aug-18 08:00N 51°59' W 006°55'2 4.6
2017-Aug-18 07:30N 52°00' W 006°52'3 4.5
2017-Aug-18 06:55N 52°02' W 006°48'2 4.7
2017-Aug-18 06:29N 52°03' W 006°45'1 2.9
2017-Aug-18 06:00N 52°03' W 006°43'2 3.2
2017-Aug-18 05:24N 52°02' W 006°40'1 2.6
2017-Aug-18 05:00N 52°02' W 006°38'1 2.3
2017-Aug-18 04:30N 52°02' W 006°37'1 2.3
2017-Aug-18 03:59N 52°02' W 006°35'1 2.3
2017-Aug-18 03:29N 52°01' W 006°33'1 2.9
2017-Aug-18 03:00N 52°01' W 006°30'2 3.1
2017-Aug-18 02:28N 52°01' W 006°28'2 3.3
2017-Aug-18 02:00N 52°01' W 006°25'1112.3
2017-Aug-18 02:00N 52°00' W 006°24'1 2.9 270 / 221009.010.8 15.011.3
2017-Aug-18 01:29N 52°01' W 006°23'1 1.9
2017-Aug-18 01:00N 52°01' W 006°21'1 1.6
2017-Aug-18 00:29N 52°01' W 006°20'1 2.3
2017-Aug-18 00:00N 52°01' W 006°18'1 2.3
2017-Aug-17 23:30N 52°01' W 006°17'1 2.5
2017-Aug-17 22:58N 52°01' W 006°14'2 3.4
2017-Aug-17 22:30N 52°01' W 006°12'2 3.6
2017-Aug-17 21:54N 52°00' W 006°08'31 2.6
2017-Aug-17 09:41N 51°45' W 005°24'1 7.7
2017-Aug-17 09:29N 51°43' W 005°24'4 7.3
2017-Aug-17 09:00N 51°40' W 005°21'4 7.5
2017-Aug-17 08:30N 51°37' W 005°17'4 7.1
2017-Aug-17 08:00N 51°34' W 005°14'4 7.0
2017-Aug-17 07:30N 51°34' W 005°08'3 6.0
2017-Aug-17 07:00N 51°34' W 005°03'2 4.6
2017-Aug-17 06:30N 51°32' W 005°06'3 5.3
2017-Aug-17 06:00N 51°31' W 005°10'3 5.1
2017-Aug-17 05:30N 51°30' W 005°13'1 3.0
2017-Aug-17 05:00N 51°29' W 005°12'2 3.3
2017-Aug-17 04:30N 51°28' W 005°10'2 3.1
2017-Aug-17 04:00N 51°27' W 005°07'1 2.8
2017-Aug-17 03:30N 51°28' W 005°05'1 2.0
2017-Aug-17 03:00N 51°29' W 005°04'1 2.1
2017-Aug-17 02:30N 51°29' W 005°03'2 3.0
2017-Aug-17 02:00N 51°29' W 005°00'1 3.0
2017-Aug-17 01:30N 51°30' W 004°58'1 2.9
2017-Aug-17 01:00N 51°31' W 004°56'1 2.7
2017-Aug-17 00:30N 51°32' W 004°54'1 2.6
2017-Aug-17 00:00N 51°32' W 004°52'1 2.4
2017-Aug-16 23:29N 51°33' W 004°51'1 1.7
2017-Aug-16 22:47N 51°34' W 004°49'1 1.7
2017-Aug-16 22:29N 51°34' W 004°48'1 1.6
2017-Aug-16 21:59N 51°34' W 004°47'1 1.7
2017-Aug-16 21:26N 51°35' W 004°46'1 1.4
2017-Aug-16 20:59N 51°35' W 004°45'1 1.8
2017-Aug-16 20:30N 51°36' W 004°44'1 1.5
2017-Aug-16 20:00N 51°36' W 004°43'2 3.7
2017-Aug-16 19:30N 51°37' W 004°41'2 3.8
2017-Aug-16 19:00N 51°39' W 004°40'0 0.7
2017-Aug-16 18:28N 51°39' W 004°40'0 0.2
2017-Aug-16 17:43N 51°39' W 004°40'0 0.4
2017-Aug-16 17:19N 51°39' W 004°40'0 0.2
2017-Aug-16 17:00N 51°39' W 004°40'4 8.5
2017-Aug-16 16:30N 51°34' W 004°41'1 2.8
2017-Aug-16 16:00N 51°33' W 004°41'  
2017-Aug-13 02:00N 51°30' W 003°54'0 0.0 1021.610.8 15.512.016.5
2017-Aug-12 23:00N 51°30' W 003°54'   340 / 81020.8 5.4 15.411.5

Dump ship's entire track history